sensor_id;sensor_type;location;lat;lon;timestamp;pressure;altitude;pressure_sealevel;temperature;humidity
58223;BME280;44020;50.890;15.796;2023-04-30T00:01:18;97816.48;;;9.57;100.00
58223;BME280;44020;50.890;15.796;2023-04-30T00:03:57;97816.30;;;9.57;100.00
58223;BME280;44020;50.890;15.796;2023-04-30T00:06:58;97818.01;;;9.58;100.00
58223;BME280;44020;50.890;15.796;2023-04-30T00:09:52;97820.59;;;9.56;100.00
58223;BME280;44020;50.890;15.796;2023-04-30T00:13:00;97820.17;;;9.54;100.00
58223;BME280;44020;50.890;15.796;2023-04-30T00:15:42;97820.50;;;9.52;100.00
58223;BME280;44020;50.890;15.796;2023-04-30T00:24:49;97820.74;;;9.48;100.00
58223;BME280;44020;50.890;15.796;2023-04-30T00:28:00;97817.27;;;9.44;100.00
58223;BME280;44020;50.890;15.796;2023-04-30T00:30:57;97820.85;;;9.41;100.00
58223;BME280;44020;50.890;15.796;2023-04-30T00:33:45;97821.73;;;9.35;100.00
58223;BME280;44020;50.890;15.796;2023-04-30T00:36:19;97826.64;;;9.34;100.00
58223;BME280;44020;50.890;15.796;2023-04-30T00:45:12;97831.21;;;9.26;100.00
58223;BME280;44020;50.890;15.796;2023-04-30T00:51:42;97830.68;;;9.20;100.00
58223;BME280;44020;50.890;15.796;2023-04-30T00:54:20;97832.36;;;9.16;100.00
58223;BME280;44020;50.890;15.796;2023-04-30T01:00:51;97834.41;;;9.11;100.00
58223;BME280;44020;50.890;15.796;2023-04-30T01:12:55;97841.88;;;9.03;100.00
58223;BME280;44020;50.890;15.796;2023-04-30T01:26:46;97846.27;;;8.94;100.00
58223;BME280;44020;50.890;15.796;2023-04-30T01:30:39;97846.64;;;8.94;100.00
58223;BME280;44020;50.890;15.796;2023-04-30T01:33:03;97850.05;;;8.90;100.00
58223;BME280;44020;50.890;15.796;2023-04-30T01:52:52;97859.39;;;8.80;100.00
58223;BME280;44020;50.890;15.796;2023-04-30T01:55:36;97861.11;;;8.81;100.00
58223;BME280;44020;50.890;15.796;2023-04-30T02:11:16;97873.13;;;8.81;100.00
58223;BME280;44020;50.890;15.796;2023-04-30T02:13:44;97873.34;;;8.81;100.00
58223;BME280;44020;50.890;15.796;2023-04-30T02:16:15;97879.02;;;8.80;100.00
58223;BME280;44020;50.890;15.796;2023-04-30T02:22:55;97883.87;;;8.77;100.00
58223;BME280;44020;50.890;15.796;2023-04-30T02:25:27;97890.97;;;8.76;100.00
58223;BME280;44020;50.890;15.796;2023-04-30T02:29:08;97888.46;;;8.73;100.00
58223;BME280;44020;50.890;15.796;2023-04-30T02:31:39;97892.41;;;8.73;100.00
58223;BME280;44020;50.890;15.796;2023-04-30T02:34:07;97889.73;;;8.73;100.00
58223;BME280;44020;50.890;15.796;2023-04-30T02:36:51;97891.60;;;8.74;100.00
58223;BME280;44020;50.890;15.796;2023-04-30T02:39:39;97898.15;;;8.78;100.00
58223;BME280;44020;50.890;15.796;2023-04-30T02:42:37;97896.84;;;8.79;100.00
58223;BME280;44020;50.890;15.796;2023-04-30T02:45:05;97900.48;;;8.80;100.00
58223;BME280;44020;50.890;15.796;2023-04-30T02:51:25;97907.06;;;8.79;100.00
58223;BME280;44020;50.890;15.796;2023-04-30T02:54:34;97914.60;;;8.78;100.00
58223;BME280;44020;50.890;15.796;2023-04-30T03:00:34;97922.37;;;8.72;100.00
58223;BME280;44020;50.890;15.796;2023-04-30T03:03:26;97926.35;;;8.68;100.00
58223;BME280;44020;50.890;15.796;2023-04-30T03:09:28;97935.88;;;8.62;100.00
58223;BME280;44020;50.890;15.796;2023-04-30T03:12:25;97940.77;;;8.61;100.00
58223;BME280;44020;50.890;15.796;2023-04-30T03:18:25;97949.66;;;8.57;100.00
58223;BME280;44020;50.890;15.796;2023-04-30T03:21:05;97954.54;;;8.52;100.00
58223;BME280;44020;50.890;15.796;2023-04-30T03:24:22;97954.00;;;8.49;100.00
58223;BME280;44020;50.890;15.796;2023-04-30T03:33:01;97953.57;;;8.45;100.00
58223;BME280;44020;50.890;15.796;2023-04-30T03:35:50;97955.05;;;8.46;100.00
58223;BME280;44020;50.890;15.796;2023-04-30T03:38:37;97957.72;;;8.46;100.00
58223;BME280;44020;50.890;15.796;2023-04-30T03:41:10;97958.98;;;8.46;100.00
58223;BME280;44020;50.890;15.796;2023-04-30T03:44:00;97962.21;;;8.45;100.00
58223;BME280;44020;50.890;15.796;2023-04-30T03:47:13;97969.30;;;8.42;100.00
58223;BME280;44020;50.890;15.796;2023-04-30T03:49:44;97973.89;;;8.39;100.00
58223;BME280;44020;50.890;15.796;2023-04-30T03:55:12;97977.40;;;8.33;100.00
58223;BME280;44020;50.890;15.796;2023-04-30T03:58:12;97980.28;;;8.29;100.00
58223;BME280;44020;50.890;15.796;2023-04-30T04:01:04;97987.16;;;8.23;100.00
58223;BME280;44020;50.890;15.796;2023-04-30T04:03:55;97989.73;;;8.18;100.00
58223;BME280;44020;50.890;15.796;2023-04-30T04:06:23;97994.30;;;8.16;100.00
58223;BME280;44020;50.890;15.796;2023-04-30T04:09:00;97998.02;;;8.12;100.00
58223;BME280;44020;50.890;15.796;2023-04-30T04:11:30;98002.56;;;8.10;100.00
58223;BME280;44020;50.890;15.796;2023-04-30T04:14:14;98005.21;;;8.07;100.00
58223;BME280;44020;50.890;15.796;2023-04-30T04:16:48;98006.76;;;8.04;100.00
58223;BME280;44020;50.890;15.796;2023-04-30T04:19:21;98011.45;;;8.03;100.00
58223;BME280;44020;50.890;15.796;2023-04-30T04:21:54;98015.47;;;8.01;100.00
58223;BME280;44020;50.890;15.796;2023-04-30T04:27:13;98023.91;;;7.99;100.00
58223;BME280;44020;50.890;15.796;2023-04-30T04:30:11;98023.86;;;7.99;100.00
58223;BME280;44020;50.890;15.796;2023-04-30T04:35:35;98028.52;;;7.98;100.00
58223;BME280;44020;50.890;15.796;2023-04-30T04:38:03;98029.88;;;7.99;100.00
58223;BME280;44020;50.890;15.796;2023-04-30T04:40:31;98037.27;;;8.00;100.00
58223;BME280;44020;50.890;15.796;2023-04-30T04:43:22;98036.48;;;8.02;100.00
58223;BME280;44020;50.890;15.796;2023-04-30T04:45:52;98041.38;;;8.03;100.00
58223;BME280;44020;50.890;15.796;2023-04-30T04:48:20;98042.55;;;8.04;100.00
58223;BME280;44020;50.890;15.796;2023-04-30T04:50:48;98046.38;;;8.05;100.00
58223;BME280;44020;50.890;15.796;2023-04-30T04:53:19;98049.86;;;8.09;99.84
58223;BME280;44020;50.890;15.796;2023-04-30T04:55:58;98051.65;;;8.12;99.42
58223;BME280;44020;50.890;15.796;2023-04-30T04:58:28;98049.89;;;8.12;98.96
58223;BME280;44020;50.890;15.796;2023-04-30T05:01:03;98051.77;;;8.13;98.26
58223;BME280;44020;50.890;15.796;2023-04-30T05:03:34;98053.86;;;8.10;97.48
58223;BME280;44020;50.890;15.796;2023-04-30T05:06:11;98059.83;;;8.08;97.24
58223;BME280;44020;50.890;15.796;2023-04-30T05:08:38;98065.26;;;8.06;96.24
58223;BME280;44020;50.890;15.796;2023-04-30T05:11:09;98065.59;;;8.00;95.54
58223;BME280;44020;50.890;15.796;2023-04-30T05:13:40;98060.63;;;7.93;95.20
58223;BME280;44020;50.890;15.796;2023-04-30T05:16:10;98066.27;;;7.91;95.35
58223;BME280;44020;50.890;15.796;2023-04-30T05:18:38;98068.56;;;7.90;94.92
58223;BME280;44020;50.890;15.796;2023-04-30T05:21:23;98070.00;;;7.90;94.53
58223;BME280;44020;50.890;15.796;2023-04-30T05:26:48;98079.08;;;7.89;94.19
58223;BME280;44020;50.890;15.796;2023-04-30T05:29:21;98080.89;;;7.91;94.65
58223;BME280;44020;50.890;15.796;2023-04-30T05:31:48;98086.27;;;7.93;94.07
58223;BME280;44020;50.890;15.796;2023-04-30T05:34:16;98091.73;;;7.90;93.20
58223;BME280;44020;50.890;15.796;2023-04-30T05:36:50;98094.35;;;7.88;93.17
58223;BME280;44020;50.890;15.796;2023-04-30T05:39:33;98091.60;;;7.87;92.56
58223;BME280;44020;50.890;15.796;2023-04-30T05:42:04;98098.13;;;7.84;92.81
58223;BME280;44020;50.890;15.796;2023-04-30T05:44:32;98098.09;;;7.84;92.36
58223;BME280;44020;50.890;15.796;2023-04-30T05:47:00;98103.06;;;7.84;92.60
58223;BME280;44020;50.890;15.796;2023-04-30T05:49:34;98105.23;;;7.86;92.76
58223;BME280;44020;50.890;15.796;2023-04-30T05:52:11;98106.39;;;7.91;92.73
58223;BME280;44020;50.890;15.796;2023-04-30T05:54:41;98105.92;;;7.97;92.86
58223;BME280;44020;50.890;15.796;2023-04-30T05:57:15;98104.52;;;8.03;92.79
58223;BME280;44020;50.890;15.796;2023-04-30T05:59:46;98104.85;;;8.07;92.39
58223;BME280;44020;50.890;15.796;2023-04-30T06:02:16;98098.89;;;8.09;92.58
58223;BME280;44020;50.890;15.796;2023-04-30T06:04:44;98096.97;;;8.15;92.60
58223;BME280;44020;50.890;15.796;2023-04-30T06:07:17;98100.69;;;8.22;92.46
58223;BME280;44020;50.890;15.796;2023-04-30T06:09:46;98106.86;;;8.26;91.90
58223;BME280;44020;50.890;15.796;2023-04-30T06:12:16;98106.77;;;8.27;91.60
58223;BME280;44020;50.890;15.796;2023-04-30T06:14:44;98108.20;;;8.30;91.38
58223;BME280;44020;50.890;15.796;2023-04-30T06:17:12;98109.63;;;8.33;91.56
58223;BME280;44020;50.890;15.796;2023-04-30T06:19:44;98109.57;;;8.37;90.55
58223;BME280;44020;50.890;15.796;2023-04-30T06:22:17;98108.26;;;8.39;90.43
58223;BME280;44020;50.890;15.796;2023-04-30T06:24:48;98109.21;;;8.41;90.32
58223;BME280;44020;50.890;15.796;2023-04-30T06:27:19;98113.07;;;8.45;90.21
58223;BME280;44020;50.890;15.796;2023-04-30T06:30:12;98118.55;;;8.49;90.19
58223;BME280;44020;50.890;15.796;2023-04-30T06:32:43;98117.50;;;8.51;89.41
58223;BME280;44020;50.890;15.796;2023-04-30T06:35:33;98111.52;;;8.51;89.12
58223;BME280;44020;50.890;15.796;2023-04-30T06:38:11;98113.77;;;8.51;88.66
58223;BME280;44020;50.890;15.796;2023-04-30T06:40:41;98117.77;;;8.53;87.83
58223;BME280;44020;50.890;15.796;2023-04-30T06:43:35;98114.83;;;8.52;87.12
58223;BME280;44020;50.890;15.796;2023-04-30T06:46:03;98113.48;;;8.54;87.41
58223;BME280;44020;50.890;15.796;2023-04-30T06:48:33;98117.68;;;8.58;86.76
58223;BME280;44020;50.890;15.796;2023-04-30T06:51:01;98120.36;;;8.61;86.90
58223;BME280;44020;50.890;15.796;2023-04-30T06:53:31;98122.88;;;8.66;86.46
58223;BME280;44020;50.890;15.796;2023-04-30T06:56:02;98118.90;;;8.68;86.14
58223;BME280;44020;50.890;15.796;2023-04-30T06:58:39;98117.34;;;8.70;86.62
58223;BME280;44020;50.890;15.796;2023-04-30T07:01:13;98124.83;;;8.76;86.17
58223;BME280;44020;50.890;15.796;2023-04-30T07:03:55;98120.59;;;8.76;85.71
58223;BME280;44020;50.890;15.796;2023-04-30T07:06:30;98119.84;;;8.76;85.81
58223;BME280;44020;50.890;15.796;2023-04-30T07:09:03;98125.14;;;8.80;85.19
58223;BME280;44020;50.890;15.796;2023-04-30T07:11:52;98124.17;;;8.81;85.13
58223;BME280;44020;50.890;15.796;2023-04-30T07:14:20;98125.02;;;8.85;84.83
58223;BME280;44020;50.890;15.796;2023-04-30T07:16:51;98123.56;;;8.89;84.85
58223;BME280;44020;50.890;15.796;2023-04-30T07:19:42;98128.31;;;8.92;84.06
58223;BME280;44020;50.890;15.796;2023-04-30T07:25:24;98129.20;;;8.92;83.29
58223;BME280;44020;50.890;15.796;2023-04-30T07:28:12;98130.10;;;8.92;83.02
58223;BME280;44020;50.890;15.796;2023-04-30T07:31:01;98131.51;;;8.95;83.00
58223;BME280;44020;50.890;15.796;2023-04-30T07:33:33;98130.74;;;8.96;83.14
58223;BME280;44020;50.890;15.796;2023-04-30T07:36:34;98132.25;;;9.01;83.47
58223;BME280;44020;50.890;15.796;2023-04-30T07:39:02;98133.94;;;9.06;82.85
58223;BME280;44020;50.890;15.796;2023-04-30T07:42:05;98135.69;;;9.06;82.86
58223;BME280;44020;50.890;15.796;2023-04-30T07:44:56;98134.09;;;9.10;82.49
58223;BME280;44020;50.890;15.796;2023-04-30T07:47:24;98134.67;;;9.14;82.49
58223;BME280;44020;50.890;15.796;2023-04-30T07:50:09;98141.71;;;9.22;81.86
58223;BME280;44020;50.890;15.796;2023-04-30T07:52:39;98140.42;;;9.22;81.12
58223;BME280;44020;50.890;15.796;2023-04-30T07:55:20;98143.59;;;9.26;81.37
58223;BME280;44020;50.890;15.796;2023-04-30T07:57:50;98143.80;;;9.32;80.54
58223;BME280;44020;50.890;15.796;2023-04-30T08:00:22;98145.77;;;9.34;80.24
58223;BME280;44020;50.890;15.796;2023-04-30T08:03:09;98149.62;;;9.35;79.68
58223;BME280;44020;50.890;15.796;2023-04-30T08:05:41;98152.88;;;9.34;80.07
58223;BME280;44020;50.890;15.796;2023-04-30T08:08:12;98157.20;;;9.39;79.65
58223;BME280;44020;50.890;15.796;2023-04-30T08:10:42;98158.48;;;9.38;78.87
58223;BME280;44020;50.890;15.796;2023-04-30T08:13:16;98158.04;;;9.36;79.36
58223;BME280;44020;50.890;15.796;2023-04-30T08:16:07;98159.66;;;9.43;79.35
58223;BME280;44020;50.890;15.796;2023-04-30T08:18:46;98163.48;;;9.50;79.48
58223;BME280;44020;50.890;15.796;2023-04-30T08:21:56;98164.57;;;9.56;78.99
58223;BME280;44020;50.890;15.796;2023-04-30T08:24:40;98168.73;;;9.57;78.76
58223;BME280;44020;50.890;15.796;2023-04-30T08:27:20;98165.30;;;9.64;78.52
58223;BME280;44020;50.890;15.796;2023-04-30T08:29:59;98163.16;;;9.70;78.80
58223;BME280;44020;50.890;15.796;2023-04-30T08:32:48;98166.05;;;9.82;78.00
58223;BME280;44020;50.890;15.796;2023-04-30T08:35:24;98163.08;;;9.92;77.96
58223;BME280;44020;50.890;15.796;2023-04-30T08:37:53;98164.48;;;10.02;77.48
58223;BME280;44020;50.890;15.796;2023-04-30T08:40:57;98163.95;;;10.05;77.41
58223;BME280;44020;50.890;15.796;2023-04-30T08:43:59;98170.95;;;10.06;76.17
58223;BME280;44020;50.890;15.796;2023-04-30T08:46:31;98168.04;;;10.04;76.91
58223;BME280;44020;50.890;15.796;2023-04-30T08:49:07;98166.11;;;10.13;76.89
58223;BME280;44020;50.890;15.796;2023-04-30T08:51:51;98170.29;;;10.11;75.91
58223;BME280;44020;50.890;15.796;2023-04-30T08:55:15;98169.84;;;10.07;76.55
58223;BME280;44020;50.890;15.796;2023-04-30T08:57:41;98173.61;;;10.09;77.13
58223;BME280;44020;50.890;15.796;2023-04-30T09:00:23;98173.70;;;10.11;77.20
58223;BME280;44020;50.890;15.796;2023-04-30T09:06:13;98167.42;;;10.32;77.78
58223;BME280;44020;50.890;15.796;2023-04-30T09:08:47;98167.26;;;10.44;77.51
58223;BME280;44020;50.890;15.796;2023-04-30T09:11:26;98170.86;;;10.49;77.68
58223;BME280;44020;50.890;15.796;2023-04-30T09:17:21;98172.88;;;10.56;75.71
58223;BME280;44020;50.890;15.796;2023-04-30T09:20:21;98172.88;;;10.62;76.49
58223;BME280;44020;50.890;15.796;2023-04-30T09:29:40;98174.84;;;10.76;75.72
58223;BME280;44020;50.890;15.796;2023-04-30T09:32:13;98171.67;;;10.84;75.19
58223;BME280;44020;50.890;15.796;2023-04-30T09:35:27;98174.16;;;10.92;74.95
58223;BME280;44020;50.890;15.796;2023-04-30T09:42:15;98176.59;;;11.15;72.99
58223;BME280;44020;50.890;15.796;2023-04-30T09:44:49;98175.79;;;11.25;73.95
58223;BME280;44020;50.890;15.796;2023-04-30T09:51:24;98176.56;;;11.37;73.69
58223;BME280;44020;50.890;15.796;2023-04-30T09:54:14;98177.40;;;11.49;71.59
58223;BME280;44020;50.890;15.796;2023-04-30T09:56:53;98171.92;;;11.54;72.13
58223;BME280;44020;50.890;15.796;2023-04-30T10:02:15;98171.38;;;11.78;72.59
58223;BME280;44020;50.890;15.796;2023-04-30T10:05:07;98168.45;;;11.90;72.27
58223;BME280;44020;50.890;15.796;2023-04-30T10:07:50;98158.45;;;11.98;71.94
58223;BME280;44020;50.890;15.796;2023-04-30T10:10:39;98166.36;;;11.95;68.99
58223;BME280;44020;50.890;15.796;2023-04-30T10:13:54;98169.77;;;11.92;66.54
58223;BME280;44020;50.890;15.796;2023-04-30T10:16:54;98166.27;;;11.82;64.25
58223;BME280;44020;50.890;15.796;2023-04-30T10:19:33;98169.61;;;11.85;65.18
58223;BME280;44020;50.890;15.796;2023-04-30T10:22:33;98166.59;;;11.94;64.59
58223;BME280;44020;50.890;15.796;2023-04-30T10:25:41;98165.84;;;11.92;61.67
58223;BME280;44020;50.890;15.796;2023-04-30T10:32:29;98154.36;;;12.13;63.18
58223;BME280;44020;50.890;15.796;2023-04-30T10:41:15;98147.73;;;12.42;60.94
58223;BME280;44020;50.890;15.796;2023-04-30T10:44:02;98150.20;;;12.42;60.84
58223;BME280;44020;50.890;15.796;2023-04-30T10:46:45;98148.04;;;12.45;60.98
58223;BME280;44020;50.890;15.796;2023-04-30T10:53:01;98142.83;;;12.58;58.20
58223;BME280;44020;50.890;15.796;2023-04-30T10:59:08;98144.91;;;12.64;58.59
58223;BME280;44020;50.890;15.796;2023-04-30T11:01:57;98136.23;;;12.66;57.39
58223;BME280;44020;50.890;15.796;2023-04-30T11:05:11;98139.14;;;12.67;56.17
58223;BME280;44020;50.890;15.796;2023-04-30T11:07:57;98145.39;;;12.62;54.79
58223;BME280;44020;50.890;15.796;2023-04-30T11:10:40;98141.60;;;12.63;56.40
58223;BME280;44020;50.890;15.796;2023-04-30T11:16:16;98140.95;;;12.64;54.57
58223;BME280;44020;50.890;15.796;2023-04-30T11:25:38;98137.95;;;12.74;55.18
58223;BME280;44020;50.890;15.796;2023-04-30T11:28:24;98134.67;;;12.90;55.49
58223;BME280;44020;50.890;15.796;2023-04-30T11:31:02;98132.66;;;12.96;53.50
58223;BME280;44020;50.890;15.796;2023-04-30T11:33:32;98129.86;;;13.02;53.93
58223;BME280;44020;50.890;15.796;2023-04-30T11:36:00;98129.03;;;13.13;54.04
58223;BME280;44020;50.890;15.796;2023-04-30T11:38:33;98127.02;;;13.22;53.60
58223;BME280;44020;50.890;15.796;2023-04-30T11:41:06;98131.96;;;13.29;52.78
58223;BME280;44020;50.890;15.796;2023-04-30T11:43:38;98132.63;;;13.37;52.13
58223;BME280;44020;50.890;15.796;2023-04-30T11:46:19;98132.78;;;13.38;51.81
58223;BME280;44020;50.890;15.796;2023-04-30T11:48:59;98127.80;;;13.45;52.76
58223;BME280;44020;50.890;15.796;2023-04-30T11:51:35;98127.65;;;13.49;52.42
58223;BME280;44020;50.890;15.796;2023-04-30T11:54:07;98127.39;;;13.50;51.27
58223;BME280;44020;50.890;15.796;2023-04-30T11:56:44;98126.33;;;13.52;52.35
58223;BME280;44020;50.890;15.796;2023-04-30T12:02:24;98133.59;;;13.72;51.55
58223;BME280;44020;50.890;15.796;2023-04-30T12:05:11;98132.73;;;13.71;49.76
58223;BME280;44020;50.890;15.796;2023-04-30T12:08:25;98129.64;;;13.79;49.93
58223;BME280;44020;50.890;15.796;2023-04-30T12:10:52;98124.08;;;13.91;50.22
58223;BME280;44020;50.890;15.796;2023-04-30T12:13:30;98126.00;;;14.01;50.86
58223;BME280;44020;50.890;15.796;2023-04-30T12:16:04;98124.28;;;14.11;51.02
58223;BME280;44020;50.890;15.796;2023-04-30T12:18:32;98125.40;;;14.25;51.98
58223;BME280;44020;50.890;15.796;2023-04-30T12:21:04;98132.05;;;14.38;51.24
58223;BME280;44020;50.890;15.796;2023-04-30T12:23:35;98126.56;;;14.35;49.98
58223;BME280;44020;50.890;15.796;2023-04-30T12:26:34;98124.27;;;14.30;48.61
58223;BME280;44020;50.890;15.796;2023-04-30T12:29:17;98119.86;;;14.31;49.88
58223;BME280;44020;50.890;15.796;2023-04-30T12:32:01;98118.96;;;14.45;49.99
58223;BME280;44020;50.890;15.796;2023-04-30T12:34:37;98121.60;;;14.55;48.18
58223;BME280;44020;50.890;15.796;2023-04-30T12:40:04;98113.11;;;14.61;48.55
58223;BME280;44020;50.890;15.796;2023-04-30T12:43:26;98117.30;;;14.73;48.50
58223;BME280;44020;50.890;15.796;2023-04-30T12:46:03;98118.39;;;14.73;46.35
58223;BME280;44020;50.890;15.796;2023-04-30T12:48:42;98113.09;;;14.70;47.14
58223;BME280;44020;50.890;15.796;2023-04-30T12:51:21;98114.99;;;14.80;47.47
58223;BME280;44020;50.890;15.796;2023-04-30T12:54:02;98115.59;;;14.83;46.78
58223;BME280;44020;50.890;15.796;2023-04-30T12:57:00;98111.11;;;14.88;46.76
58223;BME280;44020;50.890;15.796;2023-04-30T13:00:00;98106.10;;;14.94;46.56
58223;BME280;44020;50.890;15.796;2023-04-30T13:02:27;98105.47;;;15.00;46.22
58223;BME280;44020;50.890;15.796;2023-04-30T13:04:58;98102.91;;;15.07;47.22
58223;BME280;44020;50.890;15.796;2023-04-30T13:07:35;98108.69;;;15.17;47.28
58223;BME280;44020;50.890;15.796;2023-04-30T13:10:07;98114.18;;;15.25;46.62
58223;BME280;44020;50.890;15.796;2023-04-30T13:12:44;98105.61;;;15.33;46.19
58223;BME280;44020;50.890;15.796;2023-04-30T13:18:40;98101.46;;;15.35;46.12
58223;BME280;44020;50.890;15.796;2023-04-30T13:26:51;98093.52;;;15.36;43.98
58223;BME280;44020;50.890;15.796;2023-04-30T13:29:20;98094.31;;;15.42;43.79
58223;BME280;44020;50.890;15.796;2023-04-30T13:37:21;98089.98;;;15.48;43.49
58223;BME280;44020;50.890;15.796;2023-04-30T13:39:53;98086.04;;;15.53;44.36
58223;BME280;44020;50.890;15.796;2023-04-30T13:42:44;98081.27;;;15.62;44.81
58223;BME280;44020;50.890;15.796;2023-04-30T13:48:36;98081.63;;;15.84;44.44
58223;BME280;44020;50.890;15.796;2023-04-30T13:51:18;98077.32;;;15.84;43.89
58223;BME280;44020;50.890;15.796;2023-04-30T13:54:01;98076.13;;;15.87;44.27
58223;BME280;44020;50.890;15.796;2023-04-30T13:56:49;98077.98;;;15.93;44.51
58223;BME280;44020;50.890;15.796;2023-04-30T13:59:25;98075.68;;;15.99;44.03
58223;BME280;44020;50.890;15.796;2023-04-30T14:02:13;98074.29;;;16.09;43.59
58223;BME280;44020;50.890;15.796;2023-04-30T14:04:54;98083.59;;;16.17;43.42
58223;BME280;44020;50.890;15.796;2023-04-30T14:07:37;98081.79;;;16.13;41.97
58223;BME280;44020;50.890;15.796;2023-04-30T14:10:09;98080.45;;;16.12;42.65
58223;BME280;44020;50.890;15.796;2023-04-30T14:12:42;98079.89;;;16.14;42.25
58223;BME280;44020;50.890;15.796;2023-04-30T14:15:33;98065.63;;;16.19;42.37
58223;BME280;44020;50.890;15.796;2023-04-30T14:18:02;98069.02;;;16.28;42.26
58223;BME280;44020;50.890;15.796;2023-04-30T14:20:44;98068.02;;;16.37;42.48
58223;BME280;44020;50.890;15.796;2023-04-30T14:23:31;98064.34;;;16.42;42.28
58223;BME280;44020;50.890;15.796;2023-04-30T14:26:14;98061.40;;;16.53;41.99
58223;BME280;44020;50.890;15.796;2023-04-30T14:28:52;98060.77;;;16.67;42.32
58223;BME280;44020;50.890;15.796;2023-04-30T14:31:30;98060.98;;;16.70;42.22
58223;BME280;44020;50.890;15.796;2023-04-30T14:34:10;98059.29;;;16.73;42.37
58223;BME280;44020;50.890;15.796;2023-04-30T14:37:00;98057.26;;;16.80;42.28
58223;BME280;44020;50.890;15.796;2023-04-30T14:39:31;98055.17;;;16.81;42.01
58223;BME280;44020;50.890;15.796;2023-04-30T14:42:02;98058.30;;;16.89;41.66
58223;BME280;44020;50.890;15.796;2023-04-30T14:44:39;98056.46;;;16.93;40.81
58223;BME280;44020;50.890;15.796;2023-04-30T14:47:13;98053.61;;;17.02;40.61
58223;BME280;44020;50.890;15.796;2023-04-30T14:49:54;98054.70;;;17.12;40.63
58223;BME280;44020;50.890;15.796;2023-04-30T14:52:35;98054.17;;;17.20;39.77
58223;BME280;44020;50.890;15.796;2023-04-30T14:55:31;98052.90;;;17.47;39.77
58223;BME280;44020;50.890;15.796;2023-04-30T15:01:03;98048.00;;;18.19;39.67
58223;BME280;44020;50.890;15.796;2023-04-30T15:03:34;98046.71;;;18.25;39.46
58223;BME280;44020;50.890;15.796;2023-04-30T15:06:25;98048.05;;;18.37;39.64
58223;BME280;44020;50.890;15.796;2023-04-30T15:09:03;98049.29;;;18.44;38.94
58223;BME280;44020;50.890;15.796;2023-04-30T15:12:12;98046.52;;;18.47;38.72
58223;BME280;44020;50.890;15.796;2023-04-30T15:18:24;98038.50;;;18.48;38.48
58223;BME280;44020;50.890;15.796;2023-04-30T15:21:24;98045.08;;;18.39;35.19
58223;BME280;44020;50.890;15.796;2023-04-30T15:24:09;98035.63;;;17.99;35.82
58223;BME280;44020;50.890;15.796;2023-04-30T15:26:59;98040.51;;;17.84;36.28
58223;BME280;44020;50.890;15.796;2023-04-30T15:29:52;98034.73;;;17.80;37.21
58223;BME280;44020;50.890;15.796;2023-04-30T15:32:25;98033.51;;;17.90;37.20
58223;BME280;44020;50.890;15.796;2023-04-30T15:38:02;98030.38;;;17.90;37.35
58223;BME280;44020;50.890;15.796;2023-04-30T15:40:35;98026.41;;;17.81;37.08
58223;BME280;44020;50.890;15.796;2023-04-30T15:43:21;98028.49;;;17.72;36.24
58223;BME280;44020;50.890;15.796;2023-04-30T15:46:04;98029.98;;;17.56;36.53
58223;BME280;44020;50.890;15.796;2023-04-30T15:49:06;98030.25;;;17.55;36.30
58223;BME280;44020;50.890;15.796;2023-04-30T15:51:40;98032.67;;;17.54;35.85
58223;BME280;44020;50.890;15.796;2023-04-30T15:54:10;98034.11;;;17.53;36.27
58223;BME280;44020;50.890;15.796;2023-04-30T15:56:53;98030.09;;;17.62;35.88
58223;BME280;44020;50.890;15.796;2023-04-30T15:59:21;98029.47;;;17.87;35.86
58223;BME280;44020;50.890;15.796;2023-04-30T16:01:49;98030.23;;;18.18;36.40
58223;BME280;44020;50.890;15.796;2023-04-30T16:04:19;98027.80;;;18.69;36.66
58223;BME280;44020;50.890;15.796;2023-04-30T16:07:09;98029.61;;;19.15;36.15
58223;BME280;44020;50.890;15.796;2023-04-30T16:09:41;98022.98;;;19.70;36.01
58223;BME280;44020;50.890;15.796;2023-04-30T16:12:14;98022.88;;;20.23;35.09
58223;BME280;44020;50.890;15.796;2023-04-30T16:15:03;98019.48;;;20.45;34.04
58223;BME280;44020;50.890;15.796;2023-04-30T16:18:04;98016.41;;;20.79;33.70
58223;BME280;44020;50.890;15.796;2023-04-30T16:20:42;98014.87;;;21.19;34.22
58223;BME280;44020;50.890;15.796;2023-04-30T16:23:13;98014.13;;;21.50;34.46
58223;BME280;44020;50.890;15.796;2023-04-30T16:25:52;98014.72;;;21.86;33.83
58223;BME280;44020;50.890;15.796;2023-04-30T16:31:01;98007.98;;;22.42;32.07
58223;BME280;44020;50.890;15.796;2023-04-30T16:33:39;98008.79;;;22.37;30.86
58223;BME280;44020;50.890;15.796;2023-04-30T16:36:13;98011.68;;;22.16;29.84
58223;BME280;44020;50.890;15.796;2023-04-30T16:39:09;98008.35;;;21.86;30.26
58223;BME280;44020;50.890;15.796;2023-04-30T16:41:59;98009.83;;;21.89;31.05
58223;BME280;44020;50.890;15.796;2023-04-30T16:44:36;98009.16;;;21.87;30.84
58223;BME280;44020;50.890;15.796;2023-04-30T16:47:04;98005.95;;;21.68;29.68
58223;BME280;44020;50.890;15.796;2023-04-30T16:49:38;98008.58;;;21.27;29.47
58223;BME280;44020;50.890;15.796;2023-04-30T16:52:23;98009.83;;;20.91;30.37
58223;BME280;44020;50.890;15.796;2023-04-30T16:55:13;98006.64;;;20.74;30.86
58223;BME280;44020;50.890;15.796;2023-04-30T16:57:41;98007.91;;;20.55;29.98
58223;BME280;44020;50.890;15.796;2023-04-30T17:00:58;98007.11;;;20.15;30.82
58223;BME280;44020;50.890;15.796;2023-04-30T17:03:29;98005.25;;;19.91;30.87
58223;BME280;44020;50.890;15.796;2023-04-30T17:06:08;98011.71;;;19.72;31.07
58223;BME280;44020;50.890;15.796;2023-04-30T17:08:41;98010.31;;;19.56;31.02
58223;BME280;44020;50.890;15.796;2023-04-30T17:11:14;98009.85;;;19.39;31.53
58223;BME280;44020;50.890;15.796;2023-04-30T17:14:03;98010.97;;;19.24;31.68
58223;BME280;44020;50.890;15.796;2023-04-30T17:19:13;98010.30;;;18.90;32.61
58223;BME280;44020;50.890;15.796;2023-04-30T17:21:46;98009.23;;;18.77;32.90